createdAt,value
2023-04-12T00:01:00.233Z,100721.56
2023-04-12T00:03:36.031Z,100716.34
2023-04-12T00:06:09.396Z,100723.88
2023-04-12T00:08:40.913Z,100723.22
2023-04-12T00:11:11.438Z,100724.72
2023-04-12T00:13:43.547Z,100720.38
2023-04-12T00:16:21.068Z,100714.97
2023-04-12T00:18:53.779Z,100725.19
2023-04-12T00:21:25.917Z,100714.97
2023-04-12T00:23:57.408Z,100713.97
2023-04-12T00:26:29.330Z,100720.16
2023-04-12T00:29:00.396Z,100718.13
2023-04-12T00:31:32.523Z,100710.16
2023-04-12T00:34:02.526Z,100719.91
2023-04-12T00:36:32.348Z,100716.66
2023-04-12T00:39:02.097Z,100717.16
2023-04-12T00:41:31.890Z,100722.34
2023-04-12T00:44:01.559Z,100723.81
2023-04-12T00:46:31.689Z,100733.09
2023-04-12T00:49:01.463Z,100742.50
2023-04-12T00:51:34.924Z,100740.88
2023-04-12T00:54:05.244Z,100743.25
2023-04-12T00:56:35.314Z,100749.03
2023-04-12T00:59:05.722Z,100739.28
2023-04-12T01:01:38.572Z,100746.47
2023-04-12T01:04:11.116Z,100744.66
2023-04-12T01:07:06.318Z,100751.41
2023-04-12T01:10:18.210Z,100742.25
2023-04-12T01:13:12.363Z,100742.31
2023-04-12T01:16:09.392Z,100747.91
2023-04-12T01:18:47.916Z,100754.50
2023-04-12T01:21:21.159Z,100756.78
2023-04-12T01:24:31.669Z,100761.53
2023-04-12T01:27:03.621Z,100761.53
2023-04-12T01:29:45.405Z,100755.06
2023-04-12T01:32:22.489Z,100753.13
2023-04-12T01:34:58.356Z,100736.59
2023-04-12T01:37:28.784Z,100732.59
2023-04-12T01:40:00.165Z,100724.00
2023-04-12T01:42:30.114Z,100734.72
2023-04-12T01:45:03.553Z,100725.53
2023-04-12T01:47:54.198Z,100725.72
2023-04-12T01:50:27.753Z,100721.53
2023-04-12T01:53:06.554Z,100713.47
2023-04-12T01:55:36.276Z,100721.53
2023-04-12T01:58:05.993Z,100719.41
2023-04-12T02:00:35.739Z,100713.63
2023-04-12T02:03:07.232Z,100702.28
2023-04-12T02:05:37.204Z,100701.47
2023-04-12T02:08:06.902Z,100723.13
2023-04-12T02:10:39.177Z,100702.78
2023-04-12T02:13:11.921Z,100692.25
2023-04-12T02:15:45.723Z,100699.09
2023-04-12T02:18:18.411Z,100686.50
2023-04-12T02:20:48.928Z,100686.13
2023-04-12T02:23:18.792Z,100684.31
2023-04-12T02:25:48.721Z,100676.63
2023-04-12T02:28:21.427Z,100690.59
2023-04-12T02:30:55.274Z,100689.81
2023-04-12T02:33:40.057Z,100685.66
2023-04-12T02:36:12.925Z,100694.63
2023-04-12T02:38:42.686Z,100675.53
2023-04-12T02:57:44.246Z,100672.38
2023-04-12T03:00:18.127Z,100672.91
2023-04-12T03:02:47.835Z,100659.38
2023-04-12T03:05:21.038Z,100648.66
2023-04-12T03:07:52.198Z,100652.47
2023-04-12T03:10:21.937Z,100638.69
2023-04-12T03:12:52.781Z,100635.38
2023-04-12T03:15:25.367Z,100619.66
2023-04-12T03:17:58.635Z,100624.22
2023-04-12T03:20:30.278Z,100619.66
2023-04-12T03:23:00.218Z,100617.81
2023-04-12T03:25:30.605Z,100617.44
2023-04-12T03:28:01.480Z,100614.75
2023-04-12T03:30:42.053Z,100619.09
2023-04-12T03:33:12.157Z,100617.59
2023-04-12T03:35:42.554Z,100615.84
2023-04-12T03:38:19.363Z,100607.19
2023-04-12T03:40:50.297Z,100618.78
2023-04-12T03:43:20.330Z,100612.63
2023-04-12T03:45:52.917Z,100615.53
2023-04-12T03:48:26.299Z,100608.66
2023-04-12T03:50:58.361Z,100602.44
2023-04-12T03:53:36.139Z,100604.56
2023-04-12T03:56:07.374Z,100619.84
2023-04-12T03:58:38.522Z,100622.19
2023-04-12T04:01:08.912Z,100619.50
2023-04-12T04:03:40.962Z,100618.31
2023-04-12T04:06:14.009Z,100620.75
2023-04-12T04:08:45.354Z,100620.41
2023-04-12T04:11:19.070Z,100609.78
2023-04-12T04:13:52.581Z,100609.41
2023-04-12T04:16:22.973Z,100599.66
2023-04-12T04:18:54.798Z,100613.16
2023-04-12T04:21:25.778Z,100610.88
2023-04-12T04:23:56.294Z,100603.59
2023-04-12T04:26:45.574Z,100607.09
2023-04-12T04:29:15.421Z,100599.13
2023-04-12T04:31:48.367Z,100584.81
2023-04-12T04:34:18.720Z,100594.56
2023-04-12T04:36:49.273Z,100583.13
2023-04-12T04:39:23.158Z,100568.16
2023-04-12T04:41:59.635Z,100573.47
2023-04-12T04:44:33.746Z,100569.28
2023-04-12T04:47:05.409Z,100573.97
2023-04-12T04:49:35.833Z,100581.56
2023-04-12T04:52:09.747Z,100582.41
2023-04-12T04:54:44.359Z,100561.88
2023-04-12T04:57:17.410Z,100553.69
2023-04-12T04:59:48.715Z,100540.09
2023-04-12T05:02:19.618Z,100543.44
2023-04-12T05:04:49.804Z,100536.31
2023-04-12T05:07:19.441Z,100555.44
2023-04-12T05:09:49.122Z,100567.63
2023-04-12T05:12:18.787Z,100557.59
2023-04-12T05:14:51.643Z,100570.16
2023-04-12T05:17:22.319Z,100565.00
2023-04-12T05:19:53.754Z,100565.25
2023-04-12T05:22:27.329Z,100571.94
2023-04-12T05:24:57.664Z,100564.94
2023-04-12T05:27:30.284Z,100576.88
2023-04-12T05:30:01.141Z,100564.41
2023-04-12T05:32:31.293Z,100577.00
2023-04-12T05:35:01.068Z,100559.28
2023-04-12T05:37:31.402Z,100571.16
2023-04-12T05:40:04.257Z,100585.59
2023-04-12T05:42:34.391Z,100566.59
2023-04-12T05:45:04.580Z,100542.03
2023-04-12T05:47:34.937Z,100538.19
2023-04-12T05:50:07.071Z,100517.50
2023-04-12T05:52:37.461Z,100506.91
2023-04-12T05:55:08.547Z,100495.47
2023-04-12T05:57:38.860Z,100511.75
2023-04-12T06:00:27.220Z,100512.88
2023-04-12T06:03:08.819Z,100519.47
2023-04-12T06:05:40.422Z,100516.59
2023-04-12T06:08:11.364Z,100510.97
2023-04-12T06:10:41.030Z,100523.38
2023-04-12T06:13:10.763Z,100527.72
2023-04-12T06:15:41.548Z,100509.69
2023-04-12T06:18:13.886Z,100518.81
2023-04-12T06:20:43.661Z,100519.22
2023-04-12T06:23:13.355Z,100507.38
2023-04-12T06:25:42.992Z,100493.50
2023-04-12T06:28:14.080Z,100505.50
2023-04-12T06:30:44.316Z,100508.28
2023-04-12T06:33:14.651Z,100490.63
2023-04-12T06:35:44.423Z,100494.81
2023-04-12T06:38:14.179Z,100495.22
2023-04-12T06:40:46.795Z,100478.28
2023-04-12T06:43:22.184Z,100489.56
2023-04-12T06:45:51.785Z,100507.94
2023-04-12T06:48:21.504Z,100538.19
2023-04-12T06:50:51.254Z,100528.59
2023-04-12T06:53:20.914Z,100505.25
2023-04-12T06:55:50.840Z,100495.22
2023-04-12T06:58:21.669Z,100505.00
2023-04-12T07:00:52.205Z,100514.50
2023-04-12T07:03:22.435Z,100509.19
2023-04-12T07:05:52.321Z,100512.91
2023-04-12T07:08:22.462Z,100499.94
2023-04-12T07:10:56.569Z,100506.09
2023-04-12T07:13:26.469Z,100505.47
2023-04-12T07:15:56.434Z,100504.75
2023-04-12T07:18:26.519Z,100503.63
2023-04-12T07:20:59.316Z,100505.06
2023-04-12T07:23:29.223Z,100512.25
2023-04-12T07:26:02.915Z,100513.44
2023-04-12T07:28:33.012Z,100512.16
2023-04-12T07:31:03.532Z,100501.59
2023-04-12T07:33:35.992Z,100493.22
2023-04-12T07:36:06.431Z,100493.84
2023-04-12T07:38:36.101Z,100498.22
2023-04-12T07:41:05.896Z,100507.66
2023-04-12T07:43:37.055Z,100515.91
2023-04-12T07:46:10.017Z,100509.63
2023-04-12T07:48:39.739Z,100519.31
2023-04-12T07:51:09.536Z,100520.44
2023-04-12T07:53:39.225Z,100515.28
2023-04-12T07:56:09.208Z,100508.22
2023-04-12T07:58:41.523Z,100504.88
2023-04-12T08:01:11.167Z,100513.44
2023-04-12T08:03:40.996Z,100510.22
2023-04-12T08:06:11.689Z,100511.38
2023-04-12T08:08:41.525Z,100509.91
2023-04-12T08:11:14.909Z,100505.28
2023-04-12T08:13:44.608Z,100503.53
2023-04-12T08:16:14.768Z,100488.31
2023-04-12T08:18:44.559Z,100504.06
2023-04-12T08:21:14.262Z,100500.22
2023-04-12T08:23:44.161Z,100506.75
2023-04-12T08:26:16.622Z,100505.47
2023-04-12T08:28:46.421Z,100509.53
2023-04-12T08:31:16.515Z,100501.88
2023-04-12T08:33:46.445Z,100505.13
2023-04-12T08:36:17.682Z,100506.06
2023-04-12T08:38:48.585Z,100507.88
2023-04-12T08:41:19.394Z,100501.50
2023-04-12T08:43:50.189Z,100505.53
2023-04-12T08:46:19.899Z,100498.56
2023-04-12T08:48:51.205Z,100501.91
2023-04-12T08:51:22.602Z,100512.09
2023-04-12T08:53:52.775Z,100519.22
2023-04-12T08:56:23.530Z,100521.75
2023-04-12T08:58:57.782Z,100524.25
2023-04-12T09:01:27.507Z,100512.59
2023-04-12T09:03:58.357Z,100509.22
2023-04-12T09:06:29.488Z,100506.66
2023-04-12T09:09:01.391Z,100505.81
2023-04-12T09:11:31.196Z,100511.22
2023-04-12T09:14:01.109Z,100510.00
2023-04-12T09:16:57.481Z,100506.22
2023-04-12T09:19:36.358Z,100512.75
2023-04-12T09:22:06.963Z,100519.56
2023-04-12T09:24:49.893Z,100527.91
2023-04-12T09:27:22.632Z,100527.69
2023-04-12T09:29:53.584Z,100530.59
2023-04-12T09:32:29.434Z,100527.84
2023-04-12T09:35:02.074Z,100521.94
2023-04-12T09:37:31.810Z,100518.84
2023-04-12T09:40:07.569Z,100525.72
2023-04-12T09:42:38.314Z,100529.44
2023-04-12T09:45:42.997Z,100546.28
2023-04-12T09:48:22.913Z,100532.03
2023-04-12T09:50:52.576Z,100527.22
2023-04-12T09:53:23.688Z,100540.13
2023-04-12T09:55:53.365Z,100538.47
2023-04-12T09:58:23.813Z,100548.22
2023-04-12T10:00:53.505Z,100537.38
2023-04-12T10:03:24.083Z,100542.75
2023-04-12T10:05:54.789Z,100539.69
2023-04-12T10:08:27.962Z,100542.97
2023-04-12T10:10:58.660Z,100552.13
2023-04-12T10:13:28.573Z,100541.66
2023-04-12T10:15:58.352Z,100542.97
2023-04-12T10:18:28.624Z,100542.13
2023-04-12T10:20:58.322Z,100538.88
2023-04-12T10:23:29.313Z,100534.47
2023-04-12T10:25:59.051Z,100528.53
2023-04-12T10:28:28.748Z,100530.50
2023-04-12T10:31:01.265Z,100529.50
2023-04-12T10:33:32.303Z,100535.03
2023-04-12T10:36:05.274Z,100545.66
2023-04-12T10:38:49.116Z,100544.81
2023-04-12T10:41:21.467Z,100545.66
2023-04-12T10:43:51.824Z,100558.44
2023-04-12T10:46:42.863Z,100569.22
2023-04-12T10:49:16.024Z,100580.81
2023-04-12T10:52:07.351Z,100591.28
2023-04-12T10:54:37.290Z,100580.38
2023-04-12T10:57:07.425Z,100590.31
2023-04-12T10:59:58.790Z,100585.09
2023-04-12T11:02:29.106Z,100592.25
2023-04-12T11:05:13.471Z,100594.56
2023-04-12T11:07:44.061Z,100582.03
2023-04-12T11:10:17.991Z,100582.66
2023-04-12T11:13:03.101Z,100589.28
2023-04-12T11:15:33.792Z,100586.19
2023-04-12T11:18:03.507Z,100586.00
2023-04-12T11:20:35.786Z,100584.31
2023-04-12T11:23:09.969Z,100574.56
2023-04-12T11:25:40.461Z,100580.53
2023-04-12T11:28:25.190Z,100576.19
2023-04-12T11:30:58.512Z,100573.47
2023-04-12T11:33:35.966Z,100589.84
2023-04-12T11:36:16.648Z,100585.47
2023-04-12T11:38:49.707Z,100581.56
2023-04-12T11:41:20.164Z,100586.13
2023-04-12T11:43:49.877Z,100585.09
2023-04-12T11:46:20.101Z,100599.59
2023-04-12T11:48:49.927Z,100600.41
2023-04-12T11:51:32.356Z,100603.03
2023-04-12T11:54:02.662Z,100619.84
2023-04-12T11:56:34.364Z,100624.84
2023-04-12T11:59:03.996Z,100632.09
2023-04-12T12:01:34.212Z,100645.56
2023-04-12T12:04:05.368Z,100649.28
2023-04-12T12:06:35.741Z,100663.97
2023-04-12T12:09:05.825Z,100670.38
2023-04-12T12:11:35.907Z,100680.13
2023-04-12T12:14:06.532Z,100684.66
2023-04-12T12:16:40.229Z,100692.75
2023-04-12T12:19:10.275Z,100704.72
2023-04-12T12:21:40.006Z,100705.53
2023-04-12T12:24:10.403Z,100713.19
2023-04-12T12:26:41.356Z,100713.81
2023-04-12T12:29:18.331Z,100728.13
2023-04-12T12:31:53.879Z,100734.72
2023-04-12T12:34:24.078Z,100732.69
2023-04-12T12:37:00.116Z,100734.72
2023-04-12T12:39:30.152Z,100735.56
2023-04-12T12:41:59.862Z,100732.69
2023-04-12T12:44:29.484Z,100734.72
2023-04-12T12:47:10.076Z,100737.44
2023-04-12T12:49:43.603Z,100739.91
2023-04-12T12:52:14.289Z,100733.69
2023-04-12T12:54:46.428Z,100736.56
2023-04-12T12:57:17.062Z,100749.03
2023-04-12T12:59:46.909Z,100752.03
2023-04-12T13:02:19.901Z,100749.53
2023-04-12T13:04:49.882Z,100747.69
2023-04-12T13:07:20.921Z,100759.28
2023-04-12T13:09:51.049Z,100762.38
2023-04-12T13:12:24.492Z,100760.31
2023-04-12T13:15:03.038Z,100774.81
2023-04-12T13:17:45.582Z,100778.88
2023-04-12T13:20:15.313Z,100784.06
2023-04-12T13:22:44.915Z,100784.91
2023-04-12T13:25:14.539Z,100784.91
2023-04-12T13:27:44.216Z,100784.91
2023-04-12T13:30:14.146Z,100786.97
2023-04-12T13:32:44.259Z,100794.84
2023-04-12T13:35:17.964Z,100794.41
2023-04-12T13:37:48.167Z,100792.34
2023-04-12T13:40:17.976Z,100791.88
2023-04-12T13:42:48.062Z,100786.13
2023-04-12T13:45:17.884Z,100790.69
2023-04-12T13:47:47.598Z,100797.09
2023-04-12T13:50:20.143Z,100803.47
2023-04-12T13:52:50.216Z,100798.09
2023-04-12T13:55:19.853Z,100799.78
2023-04-12T13:57:49.535Z,100790.84
2023-04-12T14:00:19.960Z,100792.53
2023-04-12T14:02:49.807Z,100796.91
2023-04-12T14:05:19.460Z,100810.56
2023-04-12T14:07:51.374Z,100808.03
2023-04-12T14:10:21.780Z,100813.41
2023-04-12T14:12:51.564Z,100816.94
2023-04-12T14:15:21.348Z,100825.00
2023-04-12T14:17:51.233Z,100826.88
2023-04-12T14:20:21.809Z,100823.53
2023-04-12T14:22:51.858Z,100820.00
2023-04-12T14:25:21.968Z,100814.63
2023-04-12T14:27:52.489Z,100829.75
2023-04-12T14:30:22.105Z,100826.03
2023-04-12T14:32:52.278Z,100820.16
2023-04-12T14:35:21.943Z,100826.38
2023-04-12T14:37:51.638Z,100824.72
2023-04-12T14:40:21.362Z,100817.31
2023-04-12T14:42:50.967Z,100815.16
2023-04-12T14:45:22.429Z,100825.75
2023-04-12T14:47:52.126Z,100828.25
2023-04-12T14:50:23.223Z,100838.03
2023-04-12T14:52:52.882Z,100838.19
2023-04-12T14:55:25.791Z,100833.00
2023-04-12T14:57:55.464Z,100827.41
2023-04-12T15:00:25.345Z,100822.22
2023-04-12T15:02:55.509Z,100819.88
2023-04-12T15:05:25.981Z,100826.09
2023-04-12T15:07:59.002Z,100823.78
2023-04-12T15:10:30.106Z,100825.44
2023-04-12T15:13:03.277Z,100820.06
2023-04-12T15:15:33.001Z,100819.03
2023-04-12T15:18:04.775Z,100810.63
2023-04-12T15:20:34.683Z,100808.94
2023-04-12T15:23:04.706Z,100817.84
2023-04-12T15:25:34.977Z,100809.09
2023-04-12T15:28:04.736Z,100806.41
2023-04-12T15:30:34.349Z,100801.88
2023-04-12T15:33:04.527Z,100795.00
2023-04-12T15:35:34.247Z,100790.25
2023-04-12T15:38:04.342Z,100794.66
2023-04-12T15:40:34.016Z,100799.38
2023-04-12T15:43:03.744Z,100789.81
2023-04-12T15:45:33.451Z,100785.91
2023-04-12T15:48:03.698Z,100792.50
2023-04-12T15:50:33.570Z,100781.06
2023-04-12T15:53:04.236Z,100789.13
2023-04-12T15:55:33.924Z,100786.28
2023-04-12T15:58:03.656Z,100777.53
2023-04-12T16:00:33.719Z,100768.44
2023-04-12T16:03:03.478Z,100772.16
2023-04-12T16:05:35.411Z,100778.38
2023-04-12T16:08:05.520Z,100782.28
2023-04-12T16:10:37.158Z,100788.69
2023-04-12T16:13:06.943Z,100781.97
2023-04-12T16:15:36.648Z,100785.22
2023-04-12T16:18:06.454Z,100781.31
2023-04-12T16:20:37.253Z,100787.38
2023-04-12T16:23:07.718Z,100780.28
2023-04-12T16:25:40.283Z,100786.34
2023-04-12T16:28:09.995Z,100779.44
2023-04-12T16:30:42.956Z,100767.03
2023-04-12T16:33:12.651Z,100769.41
2023-04-12T16:35:42.696Z,100761.53
2023-04-12T16:38:17.681Z,100756.88
2023-04-12T16:40:47.744Z,100756.41
2023-04-12T16:43:21.062Z,100759.09
2023-04-12T16:45:50.808Z,100758.41
2023-04-12T16:48:20.563Z,100757.34
2023-04-12T16:50:50.740Z,100753.66
2023-04-12T16:53:20.368Z,100755.84
2023-04-12T16:55:50.386Z,100753.28
2023-04-12T16:58:20.313Z,100762.38
2023-04-12T17:00:51.013Z,100751.13
2023-04-12T17:03:22.676Z,100739.34
2023-04-12T17:05:53.007Z,100743.88
2023-04-12T17:08:23.003Z,100749.94
2023-04-12T17:10:52.688Z,100751.31
2023-04-12T17:13:22.981Z,100748.88
2023-04-12T17:15:52.672Z,100751.06
2023-04-12T17:18:23.352Z,100753.16
2023-04-12T17:20:54.290Z,100751.31
2023-04-12T17:23:23.959Z,100758.56
2023-04-12T17:25:53.662Z,100772.50
2023-04-12T17:28:23.344Z,100771.84
2023-04-12T17:30:53.063Z,100765.16
2023-04-12T17:33:23.573Z,100756.91
2023-04-12T17:35:53.191Z,100760.25
2023-04-12T17:38:23.019Z,100756.34
2023-04-12T17:40:53.133Z,100754.69
2023-04-12T17:43:22.938Z,100756.91
2023-04-12T17:45:52.602Z,100749.84
2023-04-12T17:48:22.409Z,100740.94
2023-04-12T17:50:52.177Z,100749.00
2023-04-12T17:53:21.803Z,100747.59
2023-04-12T17:55:51.496Z,100741.00
2023-04-12T17:58:21.503Z,100746.25
2023-04-12T18:00:51.840Z,100745.31
2023-04-12T18:03:21.698Z,100740.75
2023-04-12T18:05:51.474Z,100737.41
2023-04-12T18:08:21.122Z,100738.41
2023-04-12T18:10:51.220Z,100743.84
2023-04-12T18:13:20.816Z,100743.97
2023-04-12T18:15:50.487Z,100754.72
2023-04-12T18:18:20.124Z,100756.22
2023-04-12T18:20:49.809Z,100754.72
2023-04-12T18:23:20.051Z,100761.13
2023-04-12T18:25:50.150Z,100762.97
2023-04-12T18:28:19.880Z,100767.69
2023-04-12T18:30:50.525Z,100776.94
2023-04-12T18:33:22.931Z,100774.72
2023-04-12T18:35:52.819Z,100777.28
2023-04-12T18:38:22.505Z,100785.34
2023-04-12T18:40:52.990Z,100778.47
2023-04-12T18:43:22.655Z,100771.91
2023-04-12T18:45:52.914Z,100773.56
2023-04-12T18:48:23.106Z,100768.81
2023-04-12T18:50:52.852Z,100770.69
2023-04-12T18:53:22.541Z,100766.81
2023-04-12T18:55:52.449Z,100755.22
2023-04-12T18:58:23.776Z,100752.88
2023-04-12T19:00:56.287Z,100745.34
2023-04-12T19:03:27.787Z,100748.03
2023-04-12T19:05:58.852Z,100749.69
2023-04-12T19:08:28.759Z,100754.91
2023-04-12T19:10:59.068Z,100755.91
2023-04-12T19:13:28.765Z,100751.84
2023-04-12T19:15:58.683Z,100756.94
2023-04-12T19:18:31.540Z,100751.56
2023-04-12T19:21:01.165Z,100750.38
2023-04-12T19:23:31.172Z,100750.53
2023-04-12T19:26:02.199Z,100750.41
2023-04-12T19:28:34.772Z,100753.28
2023-04-12T19:31:10.843Z,100748.56
2023-04-12T19:33:41.760Z,100749.69
2023-04-12T19:36:12.224Z,100751.84
2023-04-12T19:38:45.009Z,100749.16
2023-04-12T19:41:14.960Z,100748.97
2023-04-12T19:43:44.649Z,100751.22
2023-04-12T19:46:14.956Z,100753.72
2023-04-12T19:48:44.714Z,100758.25
2023-04-12T19:51:16.813Z,100759.63
2023-04-12T19:53:49.738Z,100754.91
2023-04-12T19:56:19.409Z,100757.47
2023-04-12T19:58:51.107Z,100751.47
2023-04-12T20:01:20.909Z,100743.97
2023-04-12T20:03:50.738Z,100751.16
2023-04-12T20:06:20.570Z,100746.28
2023-04-12T20:08:50.218Z,100747.13
2023-04-12T20:11:25.652Z,100761.09
2023-04-12T20:13:54.744Z,100763.84
2023-04-12T20:16:25.744Z,100766.53
2023-04-12T20:18:59.217Z,100755.06
2023-04-12T20:21:29.350Z,100754.72
2023-04-12T20:24:00.886Z,100750.50
2023-04-12T20:26:33.629Z,100742.06
2023-04-12T20:29:03.377Z,100740.75
2023-04-12T20:31:33.448Z,100745.66
2023-04-12T20:34:03.576Z,100744.75
2023-04-12T20:36:33.315Z,100753.09
2023-04-12T20:39:03.048Z,100755.09
2023-04-12T20:41:32.722Z,100763.31
2023-04-12T20:44:02.488Z,100769.34
2023-04-12T20:46:33.291Z,100776.44
2023-04-12T20:49:06.755Z,100772.72
2023-04-12T20:51:36.366Z,100756.97
2023-04-12T20:54:06.078Z,100750.22
2023-04-12T20:56:36.358Z,100758.13
2023-04-12T20:59:06.065Z,100754.94
2023-04-12T21:01:35.774Z,100748.53
2023-04-12T21:04:07.761Z,100750.78
2023-04-12T21:06:39.082Z,100755.31
2023-04-12T21:09:08.837Z,100762.69
2023-04-12T21:11:39.167Z,100751.16
2023-04-12T21:14:10.388Z,100751.16
2023-04-12T21:16:40.538Z,100742.09
2023-04-12T21:19:11.597Z,100739.22
2023-04-12T21:21:42.675Z,100740.06
2023-04-12T21:24:12.294Z,100737.22
2023-04-12T21:26:42.888Z,100740.22
2023-04-12T21:29:14.609Z,100732.00
2023-04-12T21:31:44.346Z,100726.34
2023-04-12T21:34:14.255Z,100729.00
2023-04-12T21:36:43.840Z,100719.13
2023-04-12T21:39:13.848Z,100726.66
2023-04-12T21:41:43.595Z,100730.31
2023-04-12T21:44:14.477Z,100738.91
2023-04-12T21:46:44.146Z,100741.75
2023-04-12T21:49:13.930Z,100744.44
2023-04-12T21:51:45.995Z,100739.41
2023-04-12T21:54:17.570Z,100739.78
2023-04-12T21:56:49.826Z,100736.41
2023-04-12T21:59:19.753Z,100727.81
2023-04-12T22:01:49.747Z,100732.00
2023-04-12T22:04:19.629Z,100726.69
2023-04-12T22:06:52.325Z,100738.91
2023-04-12T22:09:21.949Z,100747.59
2023-04-12T22:11:52.178Z,100746.81
2023-04-12T22:14:24.708Z,100740.44
2023-04-12T22:16:54.441Z,100729.81
2023-04-12T22:19:24.180Z,100734.53
2023-04-12T22:21:53.980Z,100745.94
2023-04-12T22:24:24.940Z,100752.97
2023-04-12T22:26:58.836Z,100748.41
2023-04-12T22:29:28.514Z,100760.00
2023-04-12T22:31:58.679Z,100770.22
2023-04-12T22:34:28.648Z,100769.91
2023-04-12T22:37:00.453Z,100760.13
2023-04-12T22:39:30.218Z,100774.91
2023-04-12T22:42:00.137Z,100786.00
2023-04-12T22:44:30.800Z,100792.03
2023-04-12T22:47:01.996Z,100790.84
2023-04-12T22:49:37.344Z,100788.91
2023-04-12T22:52:08.117Z,100801.31
2023-04-12T22:54:37.907Z,100805.75
2023-04-12T22:57:09.795Z,100814.81
2023-04-12T22:59:39.516Z,100822.28
2023-04-12T23:02:10.048Z,100818.22
2023-04-12T23:04:39.816Z,100821.31
2023-04-12T23:07:09.834Z,100821.03
2023-04-12T23:09:41.409Z,100828.56
2023-04-12T23:12:12.148Z,100834.16
2023-04-12T23:14:41.956Z,100828.44
2023-04-12T23:17:11.774Z,100823.22
2023-04-12T23:19:41.456Z,100820.72
2023-04-12T23:22:12.124Z,100822.34
2023-04-12T23:24:42.642Z,100828.91
2023-04-12T23:27:13.064Z,100824.66
2023-04-12T23:29:44.102Z,100828.34
2023-04-12T23:32:13.810Z,100826.47
2023-04-12T23:34:45.533Z,100845.84
2023-04-12T23:37:16.643Z,100840.94
2023-04-12T23:39:48.846Z,100849.19
2023-04-12T23:42:19.704Z,100853.06
2023-04-12T23:44:52.315Z,100845.84
2023-04-12T23:47:21.917Z,100848.34
2023-04-12T23:49:55.011Z,100838.38
2023-04-12T23:52:27.559Z,100834.53
2023-04-12T23:54:57.340Z,100834.22
2023-04-12T23:57:27.667Z,100832.84
2023-04-12T23:59:57.763Z,100839.94
